Time;durP1;ratioP1;P1;durP2;ratioP2;P2;SDS_P1;SDS_P2;PMS_P1;PMS_P2;Temp;Humidity;BMP_temperature;BMP_pressure;BME280_temperature;BME280_humidity;BME280_pressure;Samples;Min_cycle;Max_cycle;Signal;HPM_P1;HPM_P2
2024/04/23 00:01:22;;;;;;;3.05;2.05;;;;;;;9.04;87.81;99985.94;5294852;27;20029;-75
2024/04/23 00:04:27;;;;;;;3.10;1.98;;;;;;;9.04;88.32;99980.59;5314934;27;20033;-78
2024/04/23 00:07:32;;;;;;;2.85;1.88;;;;;;;8.90;88.67;99983.63;5294479;27;20030;-77
2024/04/23 00:10:37;;;;;;;3.05;1.83;;;;;;;8.88;88.67;99975.75;5315044;27;20033;-76
2024/04/23 00:13:41;;;;;;;2.67;1.88;;;;;;;8.89;89.09;99965.88;5314875;27;20027;-76
2024/04/23 00:16:59;;;;;;;3.17;2.00;;;;;;;8.80;89.52;99956.81;5314980;27;20025;-76
2024/04/23 00:20:05;;;;;;;3.72;2.33;;;;;;;8.85;88.90;99953.75;5294125;27;20029;-76
2024/04/23 00:23:10;;;;;;;3.30;2.15;;;;;;;8.93;88.27;99948.59;5314980;27;20022;-77
2024/04/23 00:26:14;;;;;;;2.42;1.75;;;;;;;8.94;88.14;99936.88;5315088;27;20030;-77
2024/04/23 00:29:19;;;;;;;3.00;2.15;;;;;;;9.01;87.70;99932.69;5314591;27;20030;-76
2024/04/23 00:32:24;;;;;;;2.90;2.15;;;;;;;8.90;88.64;99930.09;5314625;27;20025;-76
2024/04/23 00:35:29;;;;;;;2.78;2.20;;;;;;;8.91;88.52;99926.47;5314470;27;20462;-76
2024/04/23 00:38:33;;;;;;;3.10;2.13;;;;;;;8.88;89.25;99918.69;5293886;27;20026;-77
2024/04/23 00:41:38;;;;;;;3.17;2.60;;;;;;;9.02;88.80;99918.31;5293749;27;20026;-76
2024/04/23 00:44:42;;;;;;;3.00;2.38;;;;;;;9.01;88.21;99913.97;5314326;27;20366;-76
2024/04/23 00:47:49;;;;;;;5.00;2.30;;;;;;;9.05;88.96;99918.91;5314458;27;20033;-78
2024/04/23 00:50:54;;;;;;;3.65;2.85;;;;;;;9.16;88.28;99916.09;5337978;26;20025;-77
2024/04/23 00:53:59;;;;;;;3.88;3.30;;;;;;;9.10;88.06;99910.47;5348810;26;20025;-76
2024/04/23 00:57:04;;;;;;;5.88;3.25;;;;;;;8.99;88.06;99907.88;5349014;26;20028;-77
2024/04/23 01:00:10;;;;;;;4.80;4.25;;;;;;;8.96;88.86;99905.50;5347868;26;20375;-76
2024/04/23 01:03:15;;;;;;;4.75;4.05;;;;;;;8.98;88.42;99900.84;5348882;26;20459;-77
2024/04/23 01:06:20;;;;;;;5.03;4.53;;;;;;;8.96;88.26;99902.81;5348892;26;20028;-77
2024/04/23 01:09:25;;;;;;;7.13;5.00;;;;;;;8.88;88.25;99906.16;5348617;26;20025;-77
2024/04/23 01:12:30;;;;;;;6.55;5.15;;;;;;;9.19;87.46;99893.56;5348913;26;20368;-78
2024/04/23 01:15:37;;;;;;;6.25;5.03;;;;;;;9.09;87.84;99903.41;5348615;26;20034;-78
2024/04/23 01:18:45;;;;;;;6.07;5.38;;;;;;;8.96;88.22;99894.78;5348354;26;20056;-75
2024/04/23 01:22:01;;;;;;;6.82;6.10;;;;;;;9.01;88.53;99896.06;5348471;26;20024;-74
2024/04/23 01:25:11;;;;;;;5.40;4.75;;;;;;;9.05;88.11;99900.16;5348734;26;20037;-76
2024/04/23 01:28:17;;;;;;;5.93;4.97;;;;;;;8.95;88.23;99901.97;5348318;26;20029;-78
2024/04/23 01:31:23;;;;;;;7.57;5.47;;;;;;;8.94;88.45;99886.03;5348411;26;20367;-76
2024/04/23 01:34:30;;;;;;;5.28;4.72;;;;;;;9.05;88.64;99893.97;5327679;26;20026;-76
2024/04/23 01:37:35;;;;;;;8.68;5.43;;;;;;;9.15;87.83;99890.34;5348206;26;20032;-77
2024/04/23 01:40:43;;;;;;;6.13;5.47;;;;;;;9.26;86.78;99883.19;5347307;26;20029;-77
2024/04/23 01:43:48;;;;;;;7.18;5.82;;;;;;;9.09;87.60;99887.34;5347020;26;20033;-77
2024/04/23 01:46:54;;;;;;;6.55;5.70;;;;;;;9.03;87.92;99879.88;5348119;26;20363;-77
2024/04/23 01:49:59;;;;;;;5.80;5.15;;;;;;;9.06;88.26;99879.59;5346487;26;20461;-77
2024/04/23 01:53:04;;;;;;;8.00;6.05;;;;;;;9.04;88.35;99877.03;5347056;26;20032;-76
2024/04/23 01:56:08;;;;;;;7.38;6.22;;;;;;;9.05;88.42;99873.41;5379959;26;20028;-76
2024/04/23 01:59:14;;;;;;;6.85;5.53;;;;;;;8.96;89.28;99865.34;5379852;26;20032;-74
2024/04/23 02:02:19;;;;;;;6.63;5.93;;;;;;;8.86;89.32;99867.13;5379950;26;20028;-77
2024/04/23 02:05:25;;;;;;;6.35;5.43;;;;;;;8.92;88.87;99863.91;5379699;26;20032;-77
2024/04/23 02:08:30;;;;;;;6.07;5.05;;;;;;;8.95;89.05;99859.13;5379728;26;20016;-77
2024/04/23 02:11:34;;;;;;;6.97;6.18;;;;;;;8.95;88.92;99859.13;5379892;26;20031;-76
2024/04/23 02:14:40;;;;;;;7.55;6.15;;;;;;;8.90;89.26;99852.50;5379581;26;20028;-75
2024/04/23 02:17:45;;;;;;;6.68;5.95;;;;;;;9.12;88.66;99847.75;5379720;26;20039;-77
2024/04/23 02:20:51;;;;;;;6.85;5.60;;;;;;;8.90;88.92;99853.34;5379573;26;20027;-76
2024/04/23 02:23:55;;;;;;;5.90;5.30;;;;;;;8.86;89.00;99851.09;5358551;26;20027;-76
2024/04/23 02:27:00;;;;;;;6.88;5.85;;;;;;;8.95;88.85;99844.91;5359542;26;20032;-77
2024/04/23 02:30:05;;;;;;;7.82;5.55;;;;;;;8.93;88.79;99839.69;5347700;26;20025;-77
2024/04/23 02:33:11;;;;;;;6.00;5.40;;;;;;;8.84;89.25;99827.13;5347950;26;20029;-75
2024/04/23 02:36:16;;;;;;;5.90;5.30;;;;;;;9.03;88.13;99834.38;5326924;26;20033;-76
2024/04/23 02:39:20;;;;;;;6.50;5.65;;;;;;;9.04;88.23;99825.31;5346385;26;20033;-77
2024/04/23 02:42:25;;;;;;;6.43;5.15;;;;;;;8.88;88.43;99820.53;5346333;26;20033;-74
2024/04/23 02:45:30;;;;;;;6.60;5.32;;;;;;;8.98;88.51;99807.16;5347281;26;20075;-76
2024/04/23 02:48:35;;;;;;;7.57;5.85;;;;;;;8.98;88.09;99810.69;5347244;26;20024;-75
2024/04/23 02:51:50;;;;;;;6.53;5.30;;;;;;;8.95;88.74;99799.41;5378474;26;20139;-76
2024/04/23 02:54:54;;;;;;;5.63;4.82;;;;;;;8.89;88.60;99795.44;5382245;26;20024;-77
2024/04/23 02:57:59;;;;;;;5.07;4.53;;;;;;;8.84;88.35;99792.31;5382593;26;20031;-77
2024/04/23 03:01:04;;;;;;;7.65;4.93;;;;;;;8.66;88.82;99793.13;5377201;26;20024;-76
2024/04/23 03:04:09;;;;;;;5.43;4.38;;;;;;;8.93;88.64;99791.53;5312591;27;20029;-77
2024/04/23 03:07:13;;;;;;;4.78;3.95;;;;;;;9.06;87.53;99784.06;5312791;27;20026;-78
2024/04/23 03:10:18;;;;;;;5.90;4.53;;;;;;;8.93;88.09;99782.63;5312676;27;20477;-77
2024/04/23 03:13:22;;;;;;;5.75;4.20;;;;;;;8.86;88.63;99779.66;5291871;27;20017;-77
2024/04/23 03:16:27;;;;;;;4.65;3.80;;;;;;;8.73;89.09;99778.22;5312634;27;20469;-77
2024/04/23 03:19:32;;;;;;;4.28;3.55;;;;;;;8.85;89.07;99787.81;5312630;27;20025;-77
2024/04/23 03:22:37;;;;;;;4.75;3.88;;;;;;;8.89;88.82;99771.34;5292022;27;20364;-77
2024/04/23 03:25:42;;;;;;;5.28;4.00;;;;;;;8.89;88.62;99778.53;5312605;27;20029;-77
2024/04/23 03:28:47;;;;;;;5.30;4.03;;;;;;;8.85;88.58;99766.41;5312599;27;20029;-77
2024/04/23 03:32:03;;;;;;;4.70;3.70;;;;;;;8.59;89.56;99767.91;5312443;27;20483;-77
2024/04/23 03:35:07;;;;;;;4.85;4.32;;;;;;;8.82;89.29;99767.53;5310926;27;20034;-78
2024/04/23 03:38:12;;;;;;;5.07;4.15;;;;;;;8.95;89.03;99775.31;5312483;27;20037;-78
2024/04/23 03:41:17;;;;;;;7.90;4.32;;;;;;;8.78;89.32;99767.97;5312308;27;20033;-78
2024/04/23 03:44:22;;;;;;;4.78;3.75;;;;;;;8.73;90.08;99764.84;5312587;27;20026;-79
2024/04/23 03:47:26;;;;;;;5.10;4.40;;;;;;;8.75;90.25;99762.88;5291403;27;20364;-77
2024/04/23 03:50:31;;;;;;;5.22;3.97;;;;;;;8.81;90.18;99759.66;5299777;26;20032;-77
2024/04/23 03:53:36;;;;;;;5.50;4.60;;;;;;;8.84;90.15;99754.03;5346481;26;20025;-78
2024/04/23 03:56:41;;;;;;;5.07;4.15;;;;;;;8.81;89.75;99755.16;5346933;26;20025;-79
2024/04/23 03:59:45;;;;;;;4.43;3.72;;;;;;;8.79;90.02;99746.41;5346491;26;20041;-77
2024/04/23 04:06:14;;;;;;;5.82;4.88;;;;;;;8.74;89.29;99754.00;5344170;26;20029;-77
2024/04/23 04:09:19;;;;;;;6.45;4.70;;;;;;;8.68;90.29;99748.34;5346136;26;20033;-79
2024/04/23 04:12:23;;;;;;;8.15;5.05;;;;;;;8.80;90.01;99748.09;5346212;26;20028;-78
2024/04/23 04:15:28;;;;;;;5.13;4.57;;;;;;;8.83;90.24;99746.97;5346270;26;20029;-78
2024/04/23 04:18:34;;;;;;;5.82;4.32;;;;;;;8.92;89.23;99743.47;5346150;26;20032;-77
2024/04/23 04:21:39;;;;;;;5.55;4.93;;;;;;;8.91;89.12;99744.47;5346376;26;20021;-78
2024/04/23 04:24:44;;;;;;;5.47;4.43;;;;;;;8.93;89.38;99754.06;5345990;26;20028;-78
2024/04/23 04:27:49;;;;;;;5.28;4.43;;;;;;;9.08;89.01;99758.00;5345935;26;20025;-78
2024/04/23 04:30:53;;;;;;;6.13;4.60;;;;;;;8.97;89.42;99744.75;5345919;26;20029;-78
2024/04/23 04:33:58;;;;;;;6.78;4.90;;;;;;;9.06;89.22;99746.56;5346007;26;20102;-79
2024/04/23 04:37:03;;;;;;;6.18;4.80;;;;;;;9.13;88.47;99749.56;5345943;26;20048;-78
2024/04/23 04:40:08;;;;;;;6.50;5.03;;;;;;;8.98;89.19;99745.59;5345703;26;20476;-78
2024/04/23 04:43:13;;;;;;;5.63;5.00;;;;;;;8.86;90.00;99744.84;5311623;27;20026;-78
2024/04/23 04:46:18;;;;;;;6.90;5.38;;;;;;;8.83;90.05;99741.63;5313156;27;20368;-78
2024/04/23 04:49:23;;;;;;;6.47;5.10;;;;;;;8.91;89.88;99733.75;5313548;27;20027;-78
2024/04/23 04:52:28;;;;;;;6.05;4.95;;;;;;;8.99;89.75;99736.56;5314699;27;20034;-78
2024/04/23 04:55:33;;;;;;;5.85;5.05;;;;;;;8.99;89.88;99731.22;5313319;27;20034;-77
2024/04/23 04:58:39;;;;;;;5.65;4.95;;;;;;;8.96;89.67;99743.03;5314551;27;20026;-78
2024/04/23 05:01:45;;;;;;;5.88;4.75;;;;;;;8.90;90.07;99742.75;5314510;27;20025;-78
2024/04/23 05:04:50;;;;;;;8.07;5.50;;;;;;;8.90;90.81;99743.63;5314343;27;20029;-78
2024/04/23 05:07:54;;;;;;;6.57;5.30;;;;;;;9.02;90.45;99741.66;5314436;27;20364;-78
2024/04/23 05:10:59;;;;;;;6.18;5.40;;;;;;;9.04;90.31;99735.16;5314278;27;20026;-77
2024/04/23 05:14:03;;;;;;;6.10;5.35;;;;;;;9.12;90.12;99731.78;5314249;27;20038;-77
2024/04/23 05:17:08;;;;;;;6.10;5.10;;;;;;;9.12;89.89;99731.78;5322168;26;20041;-78
2024/04/23 05:20:13;;;;;;;5.47;4.30;;;;;;;9.19;89.61;99730.22;5349088;26;20017;-76
2024/04/23 05:23:18;;;;;;;4.40;3.60;;;;;;;9.14;89.69;99733.34;5349030;26;20032;-77
2024/04/23 05:26:23;;;;;;;4.78;3.85;;;;;;;9.09;89.60;99732.91;5347600;26;20028;-73
2024/04/23 05:29:28;;;;;;;4.10;2.95;;;;;;;8.93;89.76;99737.13;5348710;26;20021;-75
2024/04/23 05:32:48;;;;;;;3.50;2.90;;;;;;;9.16;89.14;99733.19;5348573;26;20021;-74
2024/04/23 05:35:52;;;;;;;4.68;3.70;;;;;;;9.25;88.41;99728.84;5348571;26;20044;-75
2024/04/23 05:38:57;;;;;;;4.72;3.72;;;;;;;9.29;88.89;99727.56;5348448;26;20025;-76
2024/04/23 05:42:01;;;;;;;5.60;4.07;;;;;;;9.18;88.91;99728.56;5348532;26;20025;-72
2024/04/23 05:45:06;;;;;;;5.88;4.57;;;;;;;9.33;88.83;99726.31;5348514;26;20024;-71
2024/04/23 05:48:49;;;;;;;5.40;4.45;;;;;;;9.45;88.42;99730.50;5348351;26;20024;-71
2024/04/23 05:52:50;;;;;;;9.32;6.97;;;;;;;9.43;88.60;99733.31;5313907;27;20017;-71
2024/04/23 05:56:14;;;;;;;5.95;4.88;;;;;;;9.48;88.11;99723.03;5279720;27;20361;-79
2024/04/23 05:59:19;;;;;;;6.03;4.22;;;;;;;9.40;88.19;99730.94;5279580;27;20434;-79
2024/04/23 06:02:25;;;;;;;6.80;5.15;;;;;;;9.28;88.90;99729.41;5279753;27;20367;-78
2024/04/23 06:05:30;;;;;;;6.47;5.18;;;;;;;9.35;88.89;99738.56;5278420;27;20038;-76
2024/04/23 06:08:35;;;;;;;6.13;4.85;;;;;;;9.47;87.30;99723.19;5279629;27;20466;-79
2024/04/23 06:11:40;;;;;;;10.43;8.55;;;;;;;9.39;88.14;99733.75;5279196;27;20030;-80
2024/04/23 06:14:45;;;;;;;5.43;4.65;;;;;;;9.34;88.69;99725.28;5279506;27;20026;-78
2024/04/23 06:17:50;;;;;;;5.90;4.60;;;;;;;9.43;88.89;99729.81;5279540;27;20023;-78
2024/04/23 06:20:55;;;;;;;5.75;4.35;;;;;;;9.46;88.70;99729.50;5279562;27;20027;-80
2024/04/23 06:23:59;;;;;;;5.63;4.22;;;;;;;9.60;87.81;99732.59;5258787;27;20050;-77
2024/04/23 06:27:04;;;;;;;6.22;4.65;;;;;;;9.74;88.00;99732.16;5279082;27;20026;-81
2024/04/23 06:30:12;;;;;;;5.75;4.47;;;;;;;9.75;86.54;99736.50;5301697;27;20016;-79
2024/04/23 06:33:16;;;;;;;6.18;4.03;;;;;;;9.58;87.14;99736.44;5313458;27;20364;-77
2024/04/23 06:36:21;;;;;;;6.00;3.60;;;;;;;9.44;87.33;99726.97;5313298;27;20033;-77
2024/04/23 06:39:26;;;;;;;7.40;3.60;;;;;;;9.43;87.96;99730.63;5292830;27;20029;-77
2024/04/23 06:42:31;;;;;;;4.28;3.40;;;;;;;9.27;88.48;99721.50;5313203;27;20037;-76
2024/04/23 06:45:36;;;;;;;4.13;3.22;;;;;;;9.52;87.69;99721.75;5312947;27;20021;-81
2024/04/23 06:48:41;;;;;;;4.65;3.65;;;;;;;9.56;87.80;99716.94;5312910;27;20033;-80
2024/04/23 06:51:46;;;;;;;4.13;3.10;;;;;;;9.76;87.99;99715.91;5345065;26;20024;-79
2024/04/23 06:54:51;;;;;;;3.55;2.88;;;;;;;9.81;87.68;99714.50;5347195;26;20472;-80
2024/04/23 06:57:56;;;;;;;3.58;2.97;;;;;;;9.86;87.04;99710.53;5347299;26;20098;-79
2024/04/23 07:01:02;;;;;;;3.90;3.20;;;;;;;9.99;87.45;99703.03;5345986;26;20024;-79
2024/04/23 07:04:06;;;;;;;4.18;3.20;;;;;;;10.00;86.96;99702.84;5345571;26;20021;-80
2024/04/23 07:07:11;;;;;;;4.15;3.00;;;;;;;10.01;86.39;99699.19;5312805;27;20469;-77
2024/04/23 07:10:16;;;;;;;4.13;2.85;;;;;;;9.97;85.81;99694.28;5312514;27;20026;-78
2024/04/23 07:13:20;;;;;;;3.75;2.83;;;;;;;9.88;86.98;99696.00;5330094;26;20488;-75
2024/04/23 07:16:25;;;;;;;3.50;2.65;;;;;;;9.95;86.38;99696.28;5342715;26;20064;-75
2024/04/23 07:19:30;;;;;;;5.47;3.63;;;;;;;9.90;87.22;99690.50;5333392;26;20476;-76
2024/04/23 07:22:35;;;;;;;4.38;3.20;;;;;;;10.16;86.44;99684.34;5341857;26;20391;-77
2024/04/23 07:25:40;;;;;;;4.22;3.22;;;;;;;10.17;86.26;99690.56;5326777;26;20467;-77
2024/04/23 07:28:44;;;;;;;3.70;2.97;;;;;;;10.03;86.32;99691.84;5343422;26;20030;-76
2024/04/23 07:31:49;;;;;;;4.78;3.40;;;;;;;9.89;85.80;99684.28;5340992;26;21080;-78
2024/04/23 07:34:57;;;;;;;5.05;2.90;;;;;;;9.81;87.23;99682.34;5326216;26;20029;-77
2024/04/23 07:38:02;;;;;;;3.58;2.45;;;;;;;9.68;87.34;99676.44;5342211;26;20036;-77
2024/04/23 07:41:08;;;;;;;3.78;2.92;;;;;;;9.70;87.51;99674.47;5346295;26;20052;-78
2024/04/23 07:44:13;;;;;;;4.22;2.67;;;;;;;9.77;87.63;99678.28;5346376;26;20033;-78
2024/04/23 07:47:18;;;;;;;3.47;2.50;;;;;;;9.66;87.04;99672.22;5337938;26;20037;-77
2024/04/23 07:50:23;;;;;;;4.75;2.58;;;;;;;9.62;87.96;99671.69;5342297;26;20036;-77
2024/04/23 07:53:28;;;;;;;3.03;2.17;;;;;;;9.51;88.23;99668.31;5339926;26;20025;-76
2024/04/23 07:56:32;;;;;;;4.15;1.80;;;;;;;9.70;87.46;99666.41;5343118;26;20041;-78
2024/04/23 07:59:37;;;;;;;3.17;2.33;;;;;;;9.68;87.28;99679.13;5345847;26;20040;-77
2024/04/23 08:02:42;;;;;;;3.13;2.40;;;;;;;9.66;86.90;99683.78;5344399;26;20025;-77
2024/04/23 08:05:47;;;;;;;2.80;2.17;;;;;;;9.58;87.21;99685.53;5345432;26;20056;-78
2024/04/23 08:08:53;;;;;;;2.83;2.13;;;;;;;9.55;87.59;99686.66;5337562;26;20028;-79
2024/04/23 08:11:58;;;;;;;3.17;2.15;;;;;;;9.50;88.04;99683.56;5343677;26;20029;-75
2024/04/23 08:15:03;;;;;;;2.85;1.73;;;;;;;9.40;88.04;99685.41;5323317;26;20044;-77
2024/04/23 08:18:08;;;;;;;3.10;1.90;;;;;;;9.39;88.44;99673.00;5322874;26;20033;-74
2024/04/23 08:21:13;;;;;;;2.50;1.70;;;;;;;9.36;89.07;99684.00;5315277;26;20033;-75
2024/04/23 08:24:18;;;;;;;2.60;1.60;;;;;;;9.48;89.18;99674.81;5349109;26;20029;-74
2024/04/23 08:27:23;;;;;;;2.70;1.92;;;;;;;9.63;88.33;99673.34;5347225;26;20029;-77
2024/04/23 08:30:28;;;;;;;3.33;1.70;;;;;;;9.45;88.81;99671.59;5327947;26;20048;-75
2024/04/23 08:33:34;;;;;;;2.85;1.80;;;;;;;9.64;88.83;99668.84;5348109;26;20036;-77
2024/04/23 08:36:39;;;;;;;2.30;1.60;;;;;;;9.61;88.57;99672.66;5348082;26;20040;-76
2024/04/23 08:39:44;;;;;;;2.50;1.50;;;;;;;9.57;87.46;99676.63;5348846;26;20045;-74
2024/04/23 08:42:52;;;;;;;2.10;1.50;;;;;;;9.78;87.53;99671.91;5346872;26;20036;-74
2024/04/23 08:46:00;;;;;;;2.83;1.73;;;;;;;9.71;87.72;99678.00;5348591;26;20377;-77
2024/04/23 08:49:07;;;;;;;3.10;1.95;;;;;;;9.79;87.29;99673.59;5348047;26;20045;-74
2024/04/23 08:52:12;;;;;;;3.55;2.25;;;;;;;9.78;87.39;99674.59;5312334;27;20026;-78
2024/04/23 08:55:17;;;;;;;4.40;2.13;;;;;;;9.72;87.70;99666.28;5314474;27;20026;-75
2024/04/23 08:58:23;;;;;;;2.95;2.25;;;;;;;9.65;88.24;99668.69;5310158;27;20038;-75
2024/04/23 09:01:30;;;;;;;4.10;1.88;;;;;;;9.74;88.55;99675.03;5313184;27;20453;-77
2024/04/23 09:04:36;;;;;;;2.55;1.70;;;;;;;9.65;88.33;99665.19;5312824;27;20034;-76
2024/04/23 09:07:42;;;;;;;3.75;2.78;;;;;;;9.89;87.52;99672.72;5311870;27;20473;-77
2024/04/23 09:10:47;;;;;;;2.30;1.50;;;;;;;9.93;87.22;99664.22;5313872;27;20161;-79
2024/04/23 09:13:55;;;;;;;2.22;1.40;;;;;;;9.79;87.28;99673.59;5313006;27;20053;-79
2024/04/23 09:17:01;;;;;;;2.15;1.23;;;;;;;9.85;87.27;99676.69;5313068;27;20362;-78
2024/04/23 09:20:07;;;;;;;2.47;1.40;;;;;;;9.92;86.45;99677.78;5310651;27;20045;-79
2024/04/23 09:23:12;;;;;;;2.67;1.00;;;;;;;9.96;87.18;99671.13;5307509;27;20033;-77
2024/04/23 09:26:18;;;;;;;2.83;1.20;;;;;;;9.88;87.14;99666.50;5312888;27;20034;-77
2024/04/23 09:29:22;;;;;;;1.90;1.17;;;;;;;10.11;87.68;99677.69;5311917;27;20033;-76
2024/04/23 09:32:27;;;;;;;1.90;0.90;;;;;;;10.21;87.46;99667.81;5311521;27;20184;-78
2024/04/23 09:35:33;;;;;;;1.70;0.90;;;;;;;10.27;85.83;99675.28;5313823;27;20026;-78
2024/04/23 09:38:41;;;;;;;1.55;0.80;;;;;;;10.33;86.28;99662.09;5310996;27;20057;-75
2024/04/23 09:41:58;;;;;;;1.80;1.00;;;;;;;10.36;85.70;99658.28;5312713;27;20029;-76
2024/04/23 09:45:05;;;;;;;1.50;0.80;;;;;;;10.21;85.52;99665.13;5332089;26;20477;-76
2024/04/23 09:48:10;;;;;;;1.70;0.80;;;;;;;10.25;86.26;99658.47;5310937;27;20033;-78
2024/04/23 09:51:18;;;;;;;2.13;1.02;;;;;;;10.37;86.01;99657.25;5335393;26;20035;-77
2024/04/23 09:54:23;;;;;;;1.50;0.77;;;;;;;10.50;85.40;99663.13;5346047;26;20024;-78
2024/04/23 09:57:28;;;;;;;1.50;0.70;;;;;;;10.62;85.10;99661.91;5343635;26;20463;-78
2024/04/23 10:00:34;;;;;;;1.70;0.70;;;;;;;10.71;85.42;99661.00;5347908;26;20024;-77
2024/04/23 10:03:43;;;;;;;1.70;0.60;;;;;;;10.82;84.58;99654.56;5347304;26;20037;-77
2024/04/23 10:06:53;;;;;;;1.83;0.70;;;;;;;10.96;84.14;99660.22;5346921;26;20366;-76
2024/04/23 10:10:03;;;;;;;1.42;0.50;;;;;;;10.89;84.29;99656.47;5347808;26;20032;-76
2024/04/23 10:13:14;;;;;;;0.93;0.50;;;;;;;11.02;83.63;99653.41;5345878;26;20024;-78
2024/04/23 10:16:39;;;;;;;1.63;0.80;;;;;;;11.04;83.11;99651.41;5346686;26;20448;-79
2024/04/23 10:19:45;;;;;;;2.65;1.10;;;;;;;11.18;82.08;99648.19;5347832;26;20024;-77
2024/04/23 10:22:51;;;;;;;3.92;1.35;;;;;;;11.22;82.53;99652.22;5345736;26;20037;-78
2024/04/23 10:25:57;;;;;;;2.33;1.20;;;;;;;11.18;82.58;99644.66;5347505;26;20033;-79
2024/04/23 10:29:02;;;;;;;2.97;1.30;;;;;;;11.31;81.85;99637.00;5346413;26;20025;-77
2024/04/23 10:32:08;;;;;;;1.92;0.90;;;;;;;11.19;80.39;99639.09;5346609;26;20464;-79
2024/04/23 10:35:16;;;;;;;1.45;0.65;;;;;;;10.85;79.03;99638.16;5346106;26;20025;-78
2024/04/23 10:38:23;;;;;;;1.88;0.80;;;;;;;11.06;78.64;99627.91;5344251;26;20033;-79
2024/04/23 10:41:30;;;;;;;1.77;0.85;;;;;;;11.26;79.14;99617.84;5346411;26;20025;-79
2024/04/23 10:44:36;;;;;;;1.27;0.57;;;;;;;11.49;79.22;99621.69;5343000;26;20033;-79
2024/04/23 10:47:51;;;;;;;1.00;0.40;;;;;;;11.78;78.67;99619.53;5343874;26;20041;-79
2024/04/23 10:50:58;;;;;;;0.73;0.30;;;;;;;11.81;78.06;99611.16;5340433;26;20028;-76
2024/04/23 10:54:04;;;;;;;1.42;0.50;;;;;;;11.94;76.90;99608.88;5323676;26;20029;-81
2024/04/23 10:57:09;;;;;;;1.40;0.40;;;;;;;12.08;76.08;99605.56;5342479;26;20032;-80
2024/04/23 11:00:14;;;;;;;0.70;0.30;;;;;;;12.19;75.55;99604.44;5344396;26;20021;-77
2024/04/23 11:03:28;;;;;;;0.90;0.30;;;;;;;11.94;75.37;99606.19;5343078;26;20036;-79
2024/04/23 11:06:37;;;;;;;0.90;0.38;;;;;;;11.86;75.49;99606.13;5345062;26;20040;-78
2024/04/23 11:09:43;;;;;;;0.88;0.30;;;;;;;11.77;76.05;99614.31;5345605;26;20036;-77
2024/04/23 11:12:48;;;;;;;1.20;0.50;;;;;;;11.89;75.88;99605.81;5344838;26;20469;-78
2024/04/23 11:15:54;;;;;;;1.23;0.60;;;;;;;11.78;75.81;99608.78;5325756;26;20048;-78
2024/04/23 11:19:01;;;;;;;0.75;0.30;;;;;;;11.89;75.05;99600.44;5345682;26;20033;-78
2024/04/23 11:22:13;;;;;;;1.60;0.32;;;;;;;12.12;74.18;99598.03;5345730;26;20028;-77
2024/04/23 11:25:28;;;;;;;0.52;0.22;;;;;;;12.20;73.78;99598.88;5346462;26;20029;-77
2024/04/23 11:28:38;;;;;;;0.95;0.30;;;;;;;12.28;74.42;99601.59;5344700;26;20029;-74
2024/04/23 11:31:43;;;;;;;1.00;0.30;;;;;;;12.16;75.01;99602.91;5345634;26;20028;-75
2024/04/23 11:34:48;;;;;;;1.02;0.40;;;;;;;12.13;75.34;99594.31;5345634;26;20052;-76
2024/04/23 11:37:56;;;;;;;1.33;0.40;;;;;;;11.90;75.56;99596.72;5344692;26;20025;-75
2024/04/23 11:41:15;;;;;;;0.88;0.32;;;;;;;11.87;74.98;99602.47;5345139;26;20443;-84
2024/04/23 11:44:19;;;;;;;0.80;0.40;;;;;;;11.86;75.08;99599.91;5339371;26;20032;-79
2024/04/23 11:47:25;;;;;;;1.10;0.30;;;;;;;11.74;74.49;99599.34;5340576;26;20348;-79
2024/04/23 11:50:31;;;;;;;1.13;0.50;;;;;;;11.45;75.43;99601.53;5341501;26;20017;-81
2024/04/23 11:53:37;;;;;;;0.82;0.32;;;;;;;11.38;76.19;99595.09;5340592;26;20781;-79
2024/04/23 11:56:42;;;;;;;1.17;0.50;;;;;;;11.52;76.39;99592.66;5342371;26;20036;-78
2024/04/23 11:59:49;;;;;;;1.05;0.50;;;;;;;11.74;76.77;99586.78;5342086;26;20367;-79
2024/04/23 12:02:54;;;;;;;0.98;0.30;;;;;;;12.29;75.46;99594.38;5325218;26;20040;-75
2024/04/23 12:05:59;;;;;;;0.90;0.40;;;;;;;12.48;74.55;99590.53;5346347;26;20464;-76
2024/04/23 12:09:05;;;;;;;0.65;0.20;;;;;;;12.34;74.75;99586.66;5346118;26;20029;-79
2024/04/23 12:12:10;;;;;;;0.85;0.40;;;;;;;12.34;74.96;99587.47;5345359;26;20021;-78
2024/04/23 12:15:17;;;;;;;2.33;0.45;;;;;;;12.59;73.06;99591.06;5308595;27;20033;-74
2024/04/23 12:18:22;;;;;;;0.95;0.30;;;;;;;12.74;72.35;99588.56;5308510;27;20045;-77
2024/04/23 12:21:27;;;;;;;1.00;0.35;;;;;;;12.75;72.33;99591.09;5308096;27;20372;-80
2024/04/23 12:24:33;;;;;;;1.33;0.50;;;;;;;12.93;72.85;99590.94;5308179;27;20030;-74
2024/04/23 12:27:37;;;;;;;1.13;0.38;;;;;;;12.91;73.04;99598.34;5283390;27;20029;-74
2024/04/23 12:30:43;;;;;;;0.70;0.30;;;;;;;12.82;73.05;99594.78;5298079;26;20033;-78
2024/04/23 12:33:55;;;;;;;1.02;0.40;;;;;;;12.91;73.50;99599.16;5305121;27;20033;-78
2024/04/23 12:37:00;;;;;;;0.90;0.40;;;;;;;13.12;72.42;99587.91;5307863;27;20033;-79
2024/04/23 12:40:05;;;;;;;0.90;0.40;;;;;;;13.21;71.52;99591.47;5307204;27;20392;-78
2024/04/23 12:43:11;;;;;;;1.17;0.40;;;;;;;13.21;71.40;99584.19;5307654;27;20465;-76
2024/04/23 12:46:17;;;;;;;0.70;0.30;;;;;;;13.11;71.42;99583.53;5253925;27;20026;-75
2024/04/23 12:49:23;;;;;;;0.88;0.50;;;;;;;13.13;70.60;99578.84;5288172;27;20033;-74
2024/04/23 12:52:28;;;;;;;1.02;0.50;;;;;;;13.21;70.88;99576.13;5274898;27;20025;-80
2024/04/23 12:55:33;;;;;;;1.50;0.40;;;;;;;13.18;71.69;99573.78;5307815;27;20041;-78
2024/04/23 12:58:39;;;;;;;0.70;0.30;;;;;;;13.13;69.51;99570.75;5309672;27;20485;-80
2024/04/23 13:01:43;;;;;;;1.38;0.40;;;;;;;13.06;69.91;99569.72;5289703;27;20372;-80
2024/04/23 13:04:50;;;;;;;0.93;0.40;;;;;;;12.95;71.17;99570.06;5309120;27;20437;-78
2024/04/23 13:07:54;;;;;;;1.52;0.50;;;;;;;12.99;71.00;99560.59;5313208;27;20033;-80
2024/04/23 13:10:59;;;;;;;0.85;0.40;;;;;;;12.75;71.12;99566.84;5313896;27;20473;-80
2024/04/23 13:14:04;;;;;;;1.48;0.50;;;;;;;12.65;70.43;99557.25;5312848;27;20372;-80
2024/04/23 13:17:09;;;;;;;1.33;0.63;;;;;;;12.64;71.96;99558.28;5313654;27;20196;-80
2024/04/23 13:20:14;;;;;;;1.42;0.63;;;;;;;12.57;72.05;99558.06;5312353;27;20033;-81
2024/04/23 13:23:19;;;;;;;1.55;0.65;;;;;;;12.59;72.61;99555.22;5313511;27;20029;-80
2024/04/23 13:26:23;;;;;;;1.60;0.60;;;;;;;12.40;73.01;99545.59;5292765;27;20473;-75
2024/04/23 13:29:32;;;;;;;1.35;0.73;;;;;;;12.11;73.30;99543.38;5312589;27;20025;-75
2024/04/23 13:32:37;;;;;;;1.65;0.70;;;;;;;11.89;74.60;99543.97;5313253;27;20037;-78
2024/04/23 13:35:42;;;;;;;2.80;1.25;;;;;;;11.97;77.43;99544.00;5310896;27;20033;-77
2024/04/23 13:38:47;;;;;;;1.65;0.68;;;;;;;11.88;77.71;99539.59;5312276;27;20034;-78
2024/04/23 13:41:52;;;;;;;1.70;0.90;;;;;;;11.90;78.15;99537.56;5313561;27;20029;-75
2024/04/23 13:44:57;;;;;;;1.60;0.82;;;;;;;11.88;77.88;99533.34;5291961;27;20030;-75
2024/04/23 13:48:02;;;;;;;1.80;0.82;;;;;;;12.07;77.45;99530.41;5313441;27;20029;-76
2024/04/23 13:51:07;;;;;;;1.73;0.85;;;;;;;12.10;77.23;99532.75;5336379;26;20363;-79
2024/04/23 13:54:12;;;;;;;1.45;0.63;;;;;;;12.06;76.33;99521.50;5336113;26;20025;-78
2024/04/23 13:57:17;;;;;;;2.03;0.82;;;;;;;12.24;77.58;99524.91;5313345;27;20469;-77
2024/04/23 14:00:21;;;;;;;1.70;0.90;;;;;;;12.31;77.24;99520.53;5291467;27;20035;-78
2024/04/23 14:03:26;;;;;;;1.42;0.77;;;;;;;12.56;76.95;99516.03;5313392;27;20034;-76
2024/04/23 14:06:31;;;;;;;1.52;0.55;;;;;;;12.66;75.99;99519.41;5313264;27;20041;-79
2024/04/23 14:09:36;;;;;;;1.55;0.90;;;;;;;12.56;75.84;99523.25;5312393;26;20148;-75
2024/04/23 14:12:43;;;;;;;1.38;0.70;;;;;;;12.57;75.78;99516.84;5313242;27;20461;-78
2024/04/23 14:15:48;;;;;;;1.60;0.77;;;;;;;12.79;75.88;99518.88;5291785;27;20376;-76
2024/04/23 14:18:53;;;;;;;1.63;0.82;;;;;;;12.66;77.16;99518.56;5310689;26;20100;-77
2024/04/23 14:21:58;;;;;;;1.40;0.70;;;;;;;12.93;75.81;99520.91;5312925;27;20029;-81
2024/04/23 14:25:04;;;;;;;1.73;0.80;;;;;;;12.89;74.33;99514.16;5311681;26;20473;-85
2024/04/23 14:28:10;;;;;;;2.20;0.90;;;;;;;12.83;74.33;99520.22;5312267;27;20033;-84
2024/04/23 14:31:15;;;;;;;2.40;1.02;;;;;;;12.90;73.87;99516.69;5291847;27;20380;-77
2024/04/23 14:34:23;;;;;;;2.28;0.90;;;;;;;12.82;73.60;99514.00;5309317;26;20461;-80
2024/04/23 14:37:27;;;;;;;1.55;0.80;;;;;;;12.74;73.92;99521.25;5312577;27;20033;-82
2024/04/23 14:40:32;;;;;;;2.25;1.30;;;;;;;12.76;74.55;99522.75;5311845;26;20045;-80
2024/04/23 14:43:37;;;;;;;2.78;1.45;;;;;;;12.65;74.14;99516.84;5301461;27;20168;-82
2024/04/23 14:46:42;;;;;;;2.20;1.38;;;;;;;12.50;74.67;99524.75;5278062;27;20366;-86